PWSweather.com
Personal Weather Stations
Station Observations
S56IPS
Mostec 12, MostecSI 8257

Mostec 12MostecSI 8257

Lat: 45.899181, Lon: 15.628339

Elevation: 143

Station Type: WX-2008

Latest ConditionsUpdated 9:35:02 PM GMT+01:01 Thursday, Nov 20, 2014
Currently Today's Max Today's Min Today's Average
Temperature 41.5°F5.3°C 44.6°F7.0°C 37.2°F2.9°C 40.7°F4.8°C
Dew Point 41.3°F5.2°C 44.3°F6.8°C 37.0°F2.8°C 40.4°F4.7°C
Winds 0.7 mph W1.1 kmh W 6.0 mph W9.7 kmh W - 2.0 mph 3.2 kmh
Wind Gusts 3.1 mph5.0 kmh 10.7 mph17.2 kmh - -
Humidity 99% 99% 99% 99%
Pressure 30.23 in1023.7 mb 30.26 in1024.7 mb 30.13 in1020.3 mb -
Precipitation - 0.01 in0.3 mm - -
Hour Temp Dew Point Humidity Winds Wind Gusts Pressure Precip Precip Rate Daily Precip Total
09:35 PM 41.5°F5.3°C 41.3°F5.2°C 99% 0.7 mph W1.1 kmh W 3.1 mph5.0 kmh 30.23 in1023.7 mb 0.00 in0.0 mm 0.00 in/hr0.0 mm/hr 0.01 in0.3 mm
09:30 PM 41.5°F5.3°C 41.3°F5.2°C 99% 0.7 mph W1.1 kmh W 3.8 mph6.1 kmh 30.23 in1023.7 mb 0.00 in0.0 mm 0.00 in/hr0.0 mm/hr 0.01 in0.3 mm
09:25 PM 41.5°F5.3°C 41.3°F5.2°C 99% 0.7 mph W1.1 kmh W 3.8 mph6.1 kmh 30.23 in1023.7 mb 0.00 in0.0 mm 0.00 in/hr0.0 mm/hr 0.01 in0.3 mm
09:20 PM 41.5°F5.3°C 41.3°F5.2°C 99% 1.6 mph W2.6 kmh W 4.5 mph7.2 kmh 30.23 in1023.7 mb 0.00 in0.0 mm 0.00 in/hr0.0 mm/hr 0.01 in0.3 mm
09:15 PM 41.5°F5.3°C 41.3°F5.2°C 99% 2.2 mph W3.5 kmh W 4.5 mph7.2 kmh 30.23 in1023.7 mb 0.00 in0.0 mm 0.00 in/hr0.0 mm/hr 0.01 in0.3 mm
09:10 PM 41.7°F5.4°C 41.5°F5.3°C 99% 1.6 mph W2.6 kmh W 4.5 mph7.2 kmh 30.23 in1023.7 mb 0.00 in0.0 mm 0.00 in/hr0.0 mm/hr 0.01 in0.3 mm
09:05 PM 41.7°F5.4°C 41.5°F5.3°C 99% 1.6 mph W2.6 kmh W 4.5 mph7.2 kmh 30.23 in1023.7 mb 0.00 in0.0 mm 0.00 in/hr0.0 mm/hr 0.01 in0.3 mm
09:00 PM 41.7°F5.4°C 41.5°F5.3°C 99% 2.2 mph W3.5 kmh W 4.5 mph7.2 kmh 30.23 in1023.7 mb 0.00 in0.0 mm 0.00 in/hr0.0 mm/hr 0.01 in0.3 mm
08:55 PM 41.7°F5.4°C 41.5°F5.3°C 99% 0.7 mph W1.1 kmh W 3.1 mph5.0 kmh 30.23 in1023.7 mb 0.00 in0.0 mm 0.00 in/hr0.0 mm/hr 0.01 in0.3 mm
08:50 PM 41.5°F5.3°C 41.3°F5.2°C 99% Calm Calm 3.8 mph6.1 kmh 30.23 in1023.7 mb 0.00 in0.0 mm 0.00 in/hr0.0 mm/hr 0.01 in0.3 mm
08:45 PM 41.5°F5.3°C 41.3°F5.2°C 99% 0.7 mph W1.1 kmh W 3.8 mph6.1 kmh 30.23 in1023.7 mb 0.00 in0.0 mm 0.00 in/hr0.0 mm/hr 0.01 in0.3 mm
08:40 PM 41.4°F5.2°C 41.1°F5.1°C 99% 1.6 mph W2.6 kmh W 3.8 mph6.1 kmh 30.22 in1023.4 mb 0.00 in0.0 mm 0.00 in/hr0.0 mm/hr 0.01 in0.3 mm
08:35 PM 41.2°F5.1°C 40.9°F4.9°C 99% 1.6 mph W2.6 kmh W 4.5 mph7.2 kmh 30.22 in1023.4 mb 0.00 in0.0 mm 0.00 in/hr0.0 mm/hr 0.01 in0.3 mm
08:30 PM 41.2°F5.1°C 40.9°F4.9°C 99% 1.6 mph W2.6 kmh W 4.5 mph7.2 kmh 30.22 in1023.4 mb 0.00 in0.0 mm 0.00 in/hr0.0 mm/hr 0.01 in0.3 mm
08:25 PM 41.2°F5.1°C 40.9°F4.9°C 99% 2.2 mph W3.5 kmh W 4.5 mph7.2 kmh 30.22 in1023.4 mb 0.00 in0.0 mm 0.00 in/hr0.0 mm/hr 0.01 in0.3 mm
08:20 PM 41.4°F5.2°C 41.1°F5.1°C 99% 1.6 mph W2.6 kmh W 3.1 mph5.0 kmh 30.22 in1023.4 mb 0.00 in0.0 mm 0.00 in/hr0.0 mm/hr 0.01 in0.3 mm
08:15 PM 41.4°F5.2°C 41.1°F5.1°C 99% 0.7 mph W1.1 kmh W 3.1 mph5.0 kmh 30.22 in1023.4 mb 0.00 in0.0 mm 0.00 in/hr0.0 mm/hr 0.01 in0.3 mm
08:10 PM 41.5°F5.3°C 41.3°F5.2°C 99% 0.7 mph W1.1 kmh W 3.1 mph5.0 kmh 30.22 in1023.4 mb 0.00 in0.0 mm 0.00 in/hr0.0 mm/hr 0.01 in0.3 mm
08:05 PM 41.5°F5.3°C 41.3°F5.2°C 99% 0.7 mph W1.1 kmh W 3.1 mph5.0 kmh 30.22 in1023.4 mb 0.00 in0.0 mm 0.00 in/hr0.0 mm/hr 0.01 in0.3 mm
08:00 PM 41.5°F5.3°C 41.3°F5.2°C 99% 1.6 mph W2.6 kmh W 3.1 mph5.0 kmh 30.22 in1023.4 mb 0.00 in0.0 mm 0.00 in/hr0.0 mm/hr 0.01 in0.3 mm
07:55 PM 41.7°F5.4°C 41.5°F5.3°C 99% 1.6 mph W2.6 kmh W 3.1 mph5.0 kmh 30.21 in1023.0 mb 0.00 in0.0 mm 0.00 in/hr0.0 mm/hr 0.01 in0.3 mm
07:50 PM 41.7°F5.4°C 41.5°F5.3°C 99% 0.7 mph W1.1 kmh W 3.1 mph5.0 kmh 30.21 in1023.0 mb 0.00 in0.0 mm 0.00 in/hr0.0 mm/hr 0.01 in0.3 mm
07:45 PM 41.7°F5.4°C 41.5°F5.3°C 99% Calm Calm 3.1 mph5.0 kmh 30.20 in1022.7 mb 0.00 in0.0 mm 0.00 in/hr0.0 mm/hr 0.01 in0.3 mm
07:40 PM 41.7°F5.4°C 41.5°F5.3°C 99% 0.7 mph W1.1 kmh W 3.1 mph5.0 kmh 30.20 in1022.7 mb 0.00 in0.0 mm 0.00 in/hr0.0 mm/hr 0.01 in0.3 mm
07:35 PM 41.7°F5.4°C 41.5°F5.3°C 99% 0.7 mph W1.1 kmh W 3.8 mph6.1 kmh 30.21 in1023.0 mb 0.00 in0.0 mm 0.00 in/hr0.0 mm/hr 0.01 in0.3 mm
07:30 PM 41.7°F5.4°C 41.5°F5.3°C 99% 1.6 mph W2.6 kmh W 3.8 mph6.1 kmh 30.20 in1022.7 mb 0.00 in0.0 mm 0.00 in/hr0.0 mm/hr 0.01 in0.3 mm
07:25 PM 41.7°F5.4°C 41.5°F5.3°C 99% 0.7 mph W1.1 kmh W 3.1 mph5.0 kmh 30.21 in1023.0 mb 0.00 in0.0 mm 0.00 in/hr0.0 mm/hr 0.01 in0.3 mm
07:20 PM 41.7°F5.4°C 41.5°F5.3°C 99% 0.7 mph W1.1 kmh W 3.1 mph5.0 kmh 30.21 in1023.0 mb 0.00 in0.0 mm 0.00 in/hr0.0 mm/hr 0.01 in0.3 mm
07:15 PM 41.5°F5.3°C 41.3°F5.2°C 99% 1.6 mph W2.6 kmh W 3.8 mph6.1 kmh 30.21 in1023.0 mb 0.00 in0.0 mm 0.00 in/hr0.0 mm/hr 0.01 in0.3 mm
07:10 PM 41.5°F5.3°C 41.3°F5.2°C 99% 1.6 mph W2.6 kmh W 4.5 mph7.2 kmh 30.21 in1023.0 mb 0.00 in0.0 mm 0.00 in/hr0.0 mm/hr 0.01 in0.3 mm
07:05 PM 41.7°F5.4°C 41.5°F5.3°C 99% 2.2 mph W3.5 kmh W 4.5 mph7.2 kmh 30.21 in1023.0 mb 0.00 in0.0 mm 0.00 in/hr0.0 mm/hr 0.01 in0.3 mm
07:00 PM 41.7°F5.4°C 41.5°F5.3°C 99% 2.2 mph W3.5 kmh W 4.5 mph7.2 kmh 30.21 in1023.0 mb 0.00 in0.0 mm 0.00 in/hr0.0 mm/hr 0.01 in0.3 mm
06:55 PM 41.7°F5.4°C 41.5°F5.3°C 99% 1.6 mph W2.6 kmh W 6.0 mph9.7 kmh 30.21 in1023.0 mb 0.00 in0.0 mm 0.00 in/hr0.0 mm/hr 0.01 in0.3 mm
06:50 PM 41.5°F5.3°C 41.3°F5.2°C 99% 1.6 mph W2.6 kmh W 6.0 mph9.7 kmh 30.21 in1023.0 mb 0.00 in0.0 mm 0.00 in/hr0.0 mm/hr 0.01 in0.3 mm
06:45 PM 41.5°F5.3°C 41.3°F5.2°C 99% 2.2 mph W3.5 kmh W 4.5 mph7.2 kmh 30.21 in1023.0 mb 0.00 in0.0 mm 0.00 in/hr0.0 mm/hr 0.01 in0.3 mm
06:40 PM 41.5°F5.3°C 41.3°F5.2°C 99% 1.6 mph W2.6 kmh W 4.5 mph7.2 kmh 30.21 in1023.0 mb 0.00 in0.0 mm 0.00 in/hr0.0 mm/hr 0.01 in0.3 mm
06:35 PM 41.5°F5.3°C 41.3°F5.2°C 99% 1.6 mph W2.6 kmh W 4.5 mph7.2 kmh 30.21 in1023.0 mb 0.00 in0.0 mm 0.00 in/hr0.0 mm/hr 0.01 in0.3 mm
06:30 PM 41.7°F5.4°C 41.5°F5.3°C 99% 1.6 mph W2.6 kmh W 3.8 mph6.1 kmh 30.20 in1022.7 mb 0.00 in0.0 mm 0.00 in/hr0.0 mm/hr 0.01 in0.3 mm
06:25 PM 41.5°F5.3°C 41.3°F5.2°C 99% 1.6 mph W2.6 kmh W 3.8 mph6.1 kmh 30.20 in1022.7 mb 0.00 in0.0 mm 0.00 in/hr0.0 mm/hr 0.01 in0.3 mm
06:20 PM 41.7°F5.4°C 41.5°F5.3°C 99% 0.7 mph W1.1 kmh W 3.8 mph6.1 kmh 30.20 in1022.7 mb 0.00 in0.0 mm 0.00 in/hr0.0 mm/hr 0.01 in0.3 mm
06:15 PM 41.9°F5.5°C 41.6°F5.3°C 99% 1.6 mph W2.6 kmh W 3.1 mph5.0 kmh 30.20 in1022.7 mb 0.00 in0.0 mm 0.00 in/hr0.0 mm/hr 0.01 in0.3 mm
06:10 PM 41.9°F5.5°C 41.6°F5.3°C 99% 1.6 mph W2.6 kmh W 3.1 mph5.0 kmh 30.20 in1022.7 mb 0.00 in0.0 mm 0.00 in/hr0.0 mm/hr 0.01 in0.3 mm
06:05 PM 42.1°F5.6°C 41.8°F5.4°C 99% 1.6 mph W2.6 kmh W 3.1 mph5.0 kmh 30.20 in1022.7 mb 0.00 in0.0 mm 0.00 in/hr0.0 mm/hr 0.01 in0.3 mm
06:00 PM 42.1°F5.6°C 41.8°F5.4°C 99% 0.7 mph W1.1 kmh W 3.1 mph5.0 kmh 30.20 in1022.7 mb 0.00 in0.0 mm 0.00 in/hr0.0 mm/hr 0.01 in0.3 mm
05:55 PM 42.1°F5.6°C 41.8°F5.4°C 99% Calm Calm 2.2 mph3.5 kmh 30.20 in1022.7 mb 0.00 in0.0 mm 0.00 in/hr0.0 mm/hr 0.01 in0.3 mm
05:50 PM 42.1°F5.6°C 41.8°F5.4°C 99% Calm Calm 2.2 mph3.5 kmh 30.20 in1022.7 mb 0.00 in0.0 mm 0.00 in/hr0.0 mm/hr 0.01 in0.3 mm
05:45 PM 41.9°F5.5°C 41.6°F5.3°C 99% 0.7 mph W1.1 kmh W 3.1 mph5.0 kmh 30.20 in1022.7 mb 0.00 in0.0 mm 0.00 in/hr0.0 mm/hr 0.01 in0.3 mm
05:40 PM 41.9°F5.5°C 41.6°F5.3°C 99% Calm Calm 3.1 mph5.0 kmh 30.20 in1022.7 mb 0.00 in0.0 mm 0.00 in/hr0.0 mm/hr 0.01 in0.3 mm
05:35 PM 41.9°F5.5°C 41.6°F5.3°C 99% 0.7 mph W1.1 kmh W 3.1 mph5.0 kmh 30.21 in1023.0 mb 0.00 in0.0 mm 0.00 in/hr0.0 mm/hr 0.01 in0.3 mm
05:30 PM 41.9°F5.5°C 41.6°F5.3°C 99% 0.7 mph W1.1 kmh W 3.1 mph5.0 kmh 30.21 in1023.0 mb 0.00 in0.0 mm 0.00 in/hr0.0 mm/hr 0.01 in0.3 mm
05:25 PM 41.9°F5.5°C 41.6°F5.3°C 99% 1.6 mph W2.6 kmh W 3.1 mph5.0 kmh 30.21 in1023.0 mb 0.00 in0.0 mm 0.00 in/hr0.0 mm/hr 0.01 in0.3 mm
05:20 PM 41.9°F5.5°C 41.6°F5.3°C 99% 1.6 mph W2.6 kmh W 3.1 mph5.0 kmh 30.21 in1023.0 mb 0.00 in0.0 mm 0.00 in/hr0.0 mm/hr 0.01 in0.3 mm
05:15 PM 41.9°F5.5°C 41.6°F5.3°C 99% 1.6 mph W2.6 kmh W 3.1 mph5.0 kmh 30.21 in1023.0 mb 0.00 in0.0 mm 0.00 in/hr0.0 mm/hr 0.01 in0.3 mm
05:10 PM 42.1°F5.6°C 41.8°F5.4°C 99% 1.6 mph W2.6 kmh W 3.1 mph5.0 kmh 30.21 in1023.0 mb 0.00 in0.0 mm 0.00 in/hr0.0 mm/hr 0.01 in0.3 mm
05:05 PM 42.1°F5.6°C 41.8°F5.4°C 99% Calm Calm 3.1 mph5.0 kmh 30.21 in1023.0 mb 0.00 in0.0 mm 0.00 in/hr0.0 mm/hr 0.01 in0.3 mm
05:00 PM 42.1°F5.6°C 41.8°F5.4°C 99% Calm Calm 3.1 mph5.0 kmh 30.21 in1023.0 mb 0.00 in0.0 mm 0.00 in/hr0.0 mm/hr 0.01 in0.3 mm
04:55 PM 42.1°F5.6°C 41.8°F5.4°C 99% 0.7 mph W1.1 kmh W 3.1 mph5.0 kmh 30.21 in1023.0 mb 0.00 in0.0 mm 0.00 in/hr0.0 mm/hr 0.01 in0.3 mm
04:50 PM 42.1°F5.6°C 41.8°F5.4°C 99% 0.7 mph W1.1 kmh W 3.1 mph5.0 kmh 30.21 in1023.0 mb 0.00 in0.0 mm 0.00 in/hr0.0 mm/hr 0.01 in0.3 mm
04:45 PM 42.3°F5.7°C 42.0°F5.6°C 99% 1.6 mph WSW2.6 kmh WSW 3.1 mph5.0 kmh 30.21 in1023.0 mb 0.00 in0.0 mm 0.00 in/hr0.0 mm/hr 0.01 in0.3 mm
04:40 PM 42.3°F5.7°C 42.0°F5.6°C 99% 0.7 mph WSW1.1 kmh WSW 3.1 mph5.0 kmh 30.20 in1022.7 mb 0.00 in0.0 mm 0.00 in/hr0.0 mm/hr 0.01 in0.3 mm
04:35 PM 42.3°F5.7°C 42.0°F5.6°C 99% Calm Calm 3.1 mph5.0 kmh 30.20 in1022.7 mb 0.00 in0.0 mm 0.00 in/hr0.0 mm/hr 0.01 in0.3 mm
04:30 PM 42.3°F5.7°C 42.0°F5.6°C 99% 0.7 mph W1.1 kmh W 2.2 mph3.5 kmh 30.20 in1022.7 mb 0.00 in0.0 mm 0.00 in/hr0.0 mm/hr 0.01 in0.3 mm
04:25 PM 42.3°F5.7°C 42.0°F5.6°C 99% 0.7 mph W1.1 kmh W 3.1 mph5.0 kmh 30.20 in1022.7 mb 0.00 in0.0 mm 0.00 in/hr0.0 mm/hr 0.01 in0.3 mm
04:20 PM 42.4°F5.8°C 42.2°F5.7°C 99% 0.7 mph W1.1 kmh W 3.1 mph5.0 kmh 30.20 in1022.7 mb 0.00 in0.0 mm 0.00 in/hr0.0 mm/hr 0.01 in0.3 mm
04:15 PM 42.4°F5.8°C 42.2°F5.7°C 99% Calm Calm 3.1 mph5.0 kmh 30.20 in1022.7 mb 0.00 in0.0 mm 0.00 in/hr0.0 mm/hr 0.01 in0.3 mm
04:10 PM 42.4°F5.8°C 42.2°F5.7°C 99% Calm Calm 3.8 mph6.1 kmh 30.20 in1022.7 mb 0.00 in0.0 mm 0.00 in/hr0.0 mm/hr 0.01 in0.3 mm
04:05 PM 42.6°F5.9°C 42.4°F5.8°C 99% 2.2 mph WSW3.5 kmh WSW 3.8 mph6.1 kmh 30.20 in1022.7 mb 0.00 in0.0 mm 0.00 in/hr0.0 mm/hr 0.01 in0.3 mm
04:00 PM 42.4°F5.8°C 42.2°F5.7°C 99% 1.6 mph W2.6 kmh W 4.5 mph7.2 kmh 30.20 in1022.7 mb 0.00 in0.0 mm 0.00 in/hr0.0 mm/hr 0.01 in0.3 mm
03:55 PM 42.4°F5.8°C 42.2°F5.7°C 99% 1.6 mph W2.6 kmh W 4.5 mph7.2 kmh 30.20 in1022.7 mb 0.00 in0.0 mm 0.00 in/hr0.0 mm/hr 0.01 in0.3 mm
03:50 PM 42.6°F5.9°C 42.4°F5.8°C 99% 2.2 mph W3.5 kmh W 5.4 mph8.7 kmh 30.20 in1022.7 mb 0.00 in0.0 mm 0.00 in/hr0.0 mm/hr 0.01 in0.3 mm
03:45 PM 42.6°F5.9°C 42.4°F5.8°C 99% 0.7 mph W1.1 kmh W 5.4 mph8.7 kmh 30.20 in1022.7 mb 0.00 in0.0 mm 0.00 in/hr0.0 mm/hr 0.01 in0.3 mm
03:40 PM 42.8°F6.0°C 42.5°F5.8°C 99% 1.6 mph W2.6 kmh W 3.1 mph5.0 kmh 30.20 in1022.7 mb 0.00 in0.0 mm 0.00 in/hr0.0 mm/hr 0.01 in0.3 mm
03:35 PM 42.6°F5.9°C 42.4°F5.8°C 99% 1.6 mph W2.6 kmh W 3.8 mph6.1 kmh 30.20 in1022.7 mb 0.00 in0.0 mm 0.00 in/hr0.0 mm/hr 0.01 in0.3 mm
03:30 PM 42.6°F5.9°C 42.4°F5.8°C 99% 0.7 mph W1.1 kmh W 3.8 mph6.1 kmh 30.21 in1023.0 mb 0.00 in0.0 mm 0.00 in/hr0.0 mm/hr 0.01 in0.3 mm
03:25 PM 42.6°F5.9°C 42.4°F5.8°C 99% 1.6 mph W2.6 kmh W 3.8 mph6.1 kmh 30.20 in1022.7 mb 0.00 in0.0 mm 0.00 in/hr0.0 mm/hr 0.01 in0.3 mm
03:20 PM 42.8°F6.0°C 42.5°F5.8°C 99% 1.6 mph W2.6 kmh W 4.5 mph7.2 kmh 30.20 in1022.7 mb 0.00 in0.0 mm 0.00 in/hr0.0 mm/hr 0.01 in0.3 mm
03:15 PM 42.8°F6.0°C 42.5°F5.8°C 99% 1.6 mph W2.6 kmh W 6.0 mph9.7 kmh 30.19 in1022.4 mb 0.00 in0.0 mm 0.00 in/hr0.0 mm/hr 0.01 in0.3 mm
03:10 PM 42.8°F6.0°C 42.5°F5.8°C 99% 1.6 mph W2.6 kmh W 6.0 mph9.7 kmh 30.20 in1022.7 mb 0.00 in0.0 mm 0.00 in/hr0.0 mm/hr 0.01 in0.3 mm
03:05 PM 43.0°F6.1°C 42.7°F5.9°C 99% 2.2 mph W3.5 kmh W 6.0 mph9.7 kmh 30.20 in1022.7 mb 0.00 in0.0 mm 0.00 in/hr0.0 mm/hr 0.01 in0.3 mm
03:00 PM 43.0°F6.1°C 42.7°F5.9°C 99% 1.6 mph W2.6 kmh W 3.8 mph6.1 kmh 30.20 in1022.7 mb 0.00 in0.0 mm 0.00 in/hr0.0 mm/hr 0.01 in0.3 mm
02:55 PM 43.3°F6.3°C 43.1°F6.2°C 99% 1.6 mph W2.6 kmh W 3.8 mph6.1 kmh 30.20 in1022.7 mb 0.00 in0.0 mm 0.00 in/hr0.0 mm/hr 0.01 in0.3 mm
02:50 PM 43.5°F6.4°C 43.3°F6.3°C 99% 2.2 mph W3.5 kmh W 3.8 mph6.1 kmh 30.20 in1022.7 mb 0.00 in0.0 mm 0.00 in/hr0.0 mm/hr 0.01 in0.3 mm
02:45 PM 43.7°F6.5°C 43.4°F6.3°C 99% 1.6 mph W2.6 kmh W 4.5 mph7.2 kmh 30.20 in1022.7 mb 0.00 in0.0 mm 0.00 in/hr0.0 mm/hr 0.01 in0.3 mm
02:40 PM 44.1°F6.7°C 43.8°F6.6°C 99% 1.6 mph W2.6 kmh W 4.5 mph7.2 kmh 30.20 in1022.7 mb 0.00 in0.0 mm 0.00 in/hr0.0 mm/hr 0.01 in0.3 mm
02:35 PM 44.4°F6.9°C 44.2°F6.8°C 99% 2.2 mph W3.5 kmh W 4.5 mph7.2 kmh 30.20 in1022.7 mb 0.00 in0.0 mm 0.00 in/hr0.0 mm/hr 0.01 in0.3 mm
02:30 PM 44.4°F6.9°C 44.2°F6.8°C 99% 0.7 mph W1.1 kmh W 4.5 mph7.2 kmh 30.20 in1022.7 mb 0.00 in0.0 mm 0.00 in/hr0.0 mm/hr 0.01 in0.3 mm
02:25 PM 44.2°F6.8°C 44.0°F6.7°C 99% 2.2 mph W3.5 kmh W 6.0 mph9.7 kmh 30.20 in1022.7 mb 0.00 in0.0 mm 0.00 in/hr0.0 mm/hr 0.01 in0.3 mm
02:20 PM 44.2°F6.8°C 44.0°F6.7°C 99% 2.2 mph W3.5 kmh W 6.0 mph9.7 kmh 30.20 in1022.7 mb 0.00 in0.0 mm 0.00 in/hr0.0 mm/hr 0.01 in0.3 mm
02:15 PM 44.4°F6.9°C 44.2°F6.8°C 99% 3.1 mph W5.0 kmh W 5.4 mph8.7 kmh 30.20 in1022.7 mb 0.00 in0.0 mm 0.00 in/hr0.0 mm/hr 0.01 in0.3 mm
02:10 PM 44.2°F6.8°C 44.0°F6.7°C 99% 0.7 mph WSW1.1 kmh WSW 4.5 mph7.2 kmh 30.20 in1022.7 mb 0.00 in0.0 mm 0.00 in/hr0.0 mm/hr 0.01 in0.3 mm
02:05 PM 44.4°F6.9°C 44.2°F6.8°C 99% 1.6 mph WSW2.6 kmh WSW 5.4 mph8.7 kmh 30.20 in1022.7 mb 0.00 in0.0 mm 0.00 in/hr0.0 mm/hr 0.01 in0.3 mm
02:00 PM 44.4°F6.9°C 44.2°F6.8°C 99% 1.6 mph W2.6 kmh W 6.9 mph11.1 kmh 30.20 in1022.7 mb 0.00 in0.0 mm 0.00 in/hr0.0 mm/hr 0.01 in0.3 mm
01:55 PM 44.4°F6.9°C 44.2°F6.8°C 99% 2.2 mph W3.5 kmh W 6.9 mph11.1 kmh 30.20 in1022.7 mb 0.00 in0.0 mm 0.00 in/hr0.0 mm/hr 0.01 in0.3 mm
01:50 PM 44.6°F7.0°C 44.3°F6.8°C 99% 3.1 mph W5.0 kmh W 6.9 mph11.1 kmh 30.20 in1022.7 mb 0.00 in0.0 mm 0.00 in/hr0.0 mm/hr 0.01 in0.3 mm
01:45 PM 44.2°F6.8°C 44.0°F6.7°C 99% 3.8 mph W6.1 kmh W 6.9 mph11.1 kmh 30.20 in1022.7 mb 0.00 in0.0 mm 0.00 in/hr0.0 mm/hr 0.01 in0.3 mm
01:40 PM 44.1°F6.7°C 43.8°F6.6°C 99% 3.1 mph W5.0 kmh W 6.9 mph11.1 kmh 30.20 in1022.7 mb 0.00 in0.0 mm 0.00 in/hr0.0 mm/hr 0.01 in0.3 mm
01:35 PM 43.9°F6.6°C 43.6°F6.4°C 99% 3.1 mph W5.0 kmh W 6.9 mph11.1 kmh 30.20 in1022.7 mb 0.00 in0.0 mm 0.00 in/hr0.0 mm/hr 0.01 in0.3 mm
01:30 PM 43.9°F6.6°C 43.6°F6.4°C 99% 3.8 mph W6.1 kmh W 6.9 mph11.1 kmh 30.20 in1022.7 mb 0.00 in0.0 mm 0.00 in/hr0.0 mm/hr 0.01 in0.3 mm
01:25 PM 43.7°F6.5°C 43.4°F6.3°C 99% 3.1 mph W5.0 kmh W 6.0 mph9.7 kmh 30.20 in1022.7 mb 0.00 in0.0 mm 0.00 in/hr0.0 mm/hr 0.01 in0.3 mm
01:20 PM 43.5°F6.4°C 43.3°F6.3°C 99% 3.8 mph W6.1 kmh W 6.0 mph9.7 kmh 30.20 in1022.7 mb 0.00 in0.0 mm 0.00 in/hr0.0 mm/hr 0.01 in0.3 mm
01:15 PM 43.5°F6.4°C 43.3°F6.3°C 99% 2.2 mph W3.5 kmh W 6.0 mph9.7 kmh 30.20 in1022.7 mb 0.00 in0.0 mm 0.00 in/hr0.0 mm/hr 0.01 in0.3 mm
01:10 PM 43.5°F6.4°C 43.3°F6.3°C 99% 3.1 mph W5.0 kmh W 7.6 mph12.2 kmh 30.20 in1022.7 mb 0.00 in0.0 mm 0.00 in/hr0.0 mm/hr 0.01 in0.3 mm
01:05 PM 43.2°F6.2°C 42.9°F6.1°C 99% 2.2 mph W3.5 kmh W 8.3 mph13.4 kmh 30.20 in1022.7 mb 0.00 in0.0 mm 0.00 in/hr0.0 mm/hr 0.01 in0.3 mm
01:00 PM 43.0°F6.1°C 42.7°F5.9°C 99% 4.5 mph W7.2 kmh W 8.3 mph13.4 kmh 30.21 in1023.0 mb 0.00 in0.0 mm 0.00 in/hr0.0 mm/hr 0.01 in0.3 mm
12:55 PM 43.0°F6.1°C 42.7°F5.9°C 99% 2.2 mph W3.5 kmh W 6.0 mph9.7 kmh 30.21 in1023.0 mb 0.00 in0.0 mm 0.00 in/hr0.0 mm/hr 0.01 in0.3 mm
12:50 PM 42.8°F6.0°C 42.5°F5.8°C 99% 2.2 mph W3.5 kmh W 7.6 mph12.2 kmh 30.20 in1022.7 mb 0.00 in0.0 mm 0.00 in/hr0.0 mm/hr 0.01 in0.3 mm
12:45 PM 42.8°F6.0°C 42.5°F5.8°C 99% 2.2 mph W3.5 kmh W 7.6 mph12.2 kmh 30.21 in1023.0 mb 0.00 in0.0 mm 0.00 in/hr0.0 mm/hr 0.01 in0.3 mm
12:40 PM 42.8°F6.0°C 42.5°F5.8°C 99% 3.8 mph W6.1 kmh W 7.6 mph12.2 kmh 30.20 in1022.7 mb 0.00 in0.0 mm 0.00 in/hr0.0 mm/hr 0.01 in0.3 mm
12:35 PM 42.6°F5.9°C 42.4°F5.8°C 99% 3.8 mph W6.1 kmh W 7.6 mph12.2 kmh 30.20 in1022.7 mb 0.00 in0.0 mm 0.00 in/hr0.0 mm/hr 0.01 in0.3 mm
12:30 PM 42.6°F5.9°C 42.4°F5.8°C 99% 3.8 mph W6.1 kmh W 9.2 mph14.8 kmh 30.20 in1022.7 mb 0.00 in0.0 mm 0.00 in/hr0.0 mm/hr 0.01 in0.3 mm
12:25 PM 42.6°F5.9°C 42.4°F5.8°C 99% 4.5 mph W7.2 kmh W 9.2 mph14.8 kmh 30.20 in1022.7 mb 0.00 in0.0 mm 0.00 in/hr0.0 mm/hr 0.01 in0.3 mm
12:20 PM 42.4°F5.8°C 42.2°F5.7°C 99% 3.8 mph W6.1 kmh W 6.0 mph9.7 kmh 30.20 in1022.7 mb 0.00 in0.0 mm 0.00 in/hr0.0 mm/hr 0.01 in0.3 mm
12:15 PM 42.4°F5.8°C 42.2°F5.7°C 99% 3.8 mph W6.1 kmh W 6.0 mph9.7 kmh 30.21 in1023.0 mb 0.00 in0.0 mm 0.00 in/hr0.0 mm/hr 0.01 in0.3 mm
12:10 PM 42.3°F5.7°C 42.0°F5.6°C 99% 2.2 mph W3.5 kmh W 6.0 mph9.7 kmh 30.21 in1023.0 mb 0.00 in0.0 mm 0.00 in/hr0.0 mm/hr 0.01 in0.3 mm
12:05 PM 42.1°F5.6°C 41.8°F5.4°C 99% 3.1 mph W5.0 kmh W 9.2 mph14.8 kmh 30.22 in1023.4 mb 0.00 in0.0 mm 0.00 in/hr0.0 mm/hr 0.01 in0.3 mm
12:00 PM 42.1°F5.6°C 41.8°F5.4°C 99% 3.1 mph W5.0 kmh W 9.2 mph14.8 kmh 30.22 in1023.4 mb 0.00 in0.0 mm 0.00 in/hr0.0 mm/hr 0.01 in0.3 mm
11:55 AM 42.3°F5.7°C 42.0°F5.6°C 99% 2.2 mph W3.5 kmh W 9.8 mph15.8 kmh 30.22 in1023.4 mb 0.00 in0.0 mm 0.00 in/hr0.0 mm/hr 0.01 in0.3 mm
11:50 AM 41.9°F5.5°C 41.6°F5.3°C 99% 3.1 mph W5.0 kmh W 9.8 mph15.8 kmh 30.22 in1023.4 mb 0.00 in0.0 mm 0.00 in/hr0.0 mm/hr 0.01 in0.3 mm
11:45 AM 41.9°F5.5°C 41.6°F5.3°C 99% 4.5 mph W7.2 kmh W 10.7 mph17.2 kmh 30.22 in1023.4 mb 0.00 in0.0 mm 0.00 in/hr0.0 mm/hr 0.01 in0.3 mm
11:40 AM 41.5°F5.3°C 41.3°F5.2°C 99% 3.1 mph W5.0 kmh W 10.7 mph17.2 kmh 30.23 in1023.7 mb 0.00 in0.0 mm 0.00 in/hr0.0 mm/hr 0.01 in0.3 mm
11:35 AM 41.4°F5.2°C 41.1°F5.1°C 99% 6.0 mph W9.7 kmh W 10.7 mph17.2 kmh 30.24 in1024.0 mb 0.00 in0.0 mm 0.00 in/hr0.0 mm/hr 0.01 in0.3 mm
11:30 AM 41.5°F5.3°C 41.3°F5.2°C 99% 4.5 mph W7.2 kmh W 9.2 mph14.8 kmh 30.24 in1024.0 mb 0.00 in0.0 mm 0.00 in/hr0.0 mm/hr 0.01 in0.3 mm
11:25 AM 41.4°F5.2°C 41.1°F5.1°C 99% 3.1 mph W5.0 kmh W 6.0 mph9.7 kmh 30.24 in1024.0 mb 0.00 in0.0 mm 0.00 in/hr0.0 mm/hr 0.01 in0.3 mm
11:20 AM 41.4°F5.2°C 41.1°F5.1°C 99% 4.5 mph W7.2 kmh W 6.0 mph9.7 kmh 30.24 in1024.0 mb 0.00 in0.0 mm 0.00 in/hr0.0 mm/hr 0.01 in0.3 mm
11:15 AM 41.4°F5.2°C 41.1°F5.1°C 99% 3.1 mph W5.0 kmh W 6.0 mph9.7 kmh 30.24 in1024.0 mb 0.00 in0.0 mm 0.00 in/hr0.0 mm/hr 0.01 in0.3 mm
11:10 AM 41.5°F5.3°C 41.3°F5.2°C 99% 3.8 mph W6.1 kmh W 6.0 mph9.7 kmh 30.24 in1024.0 mb 0.00 in0.0 mm 0.00 in/hr0.0 mm/hr 0.01 in0.3 mm
11:05 AM 41.2°F5.1°C 40.9°F4.9°C 99% 3.1 mph W5.0 kmh W 8.3 mph13.4 kmh 30.24 in1024.0 mb 0.00 in0.0 mm 0.00 in/hr0.0 mm/hr 0.01 in0.3 mm
11:00 AM 40.8°F4.9°C 40.6°F4.8°C 99% 3.8 mph W6.1 kmh W 8.3 mph13.4 kmh 30.25 in1024.4 mb 0.00 in0.0 mm 0.00 in/hr0.0 mm/hr 0.01 in0.3 mm
10:55 AM 40.8°F4.9°C 40.6°F4.8°C 99% 3.8 mph W6.1 kmh W 8.3 mph13.4 kmh 30.25 in1024.4 mb 0.00 in0.0 mm 0.00 in/hr0.0 mm/hr 0.01 in0.3 mm
10:50 AM 40.8°F4.9°C 40.6°F4.8°C 99% 3.8 mph W6.1 kmh W 9.2 mph14.8 kmh 30.25 in1024.4 mb 0.00 in0.0 mm 0.00 in/hr0.0 mm/hr 0.01 in0.3 mm
10:45 AM 40.8°F4.9°C 40.6°F4.8°C 99% 4.5 mph WSW7.2 kmh WSW 9.2 mph14.8 kmh 30.25 in1024.4 mb 0.00 in0.0 mm 0.00 in/hr0.0 mm/hr 0.01 in0.3 mm
10:40 AM 40.6°F4.8°C 40.4°F4.7°C 99% 4.5 mph W7.2 kmh W 9.2 mph14.8 kmh 30.25 in1024.4 mb 0.00 in0.0 mm 0.00 in/hr0.0 mm/hr 0.01 in0.3 mm
10:35 AM 40.5°F4.7°C 40.2°F4.6°C 99% 3.8 mph W6.1 kmh W 9.2 mph14.8 kmh 30.25 in1024.4 mb 0.00 in0.0 mm 0.00 in/hr0.0 mm/hr 0.01 in0.3 mm
10:30 AM 40.3°F4.6°C 40.0°F4.4°C 99% 5.4 mph W8.7 kmh W 8.3 mph13.4 kmh 30.25 in1024.4 mb 0.00 in0.0 mm 0.00 in/hr0.0 mm/hr 0.01 in0.3 mm
10:25 AM 40.1°F4.5°C 39.8°F4.3°C 99% 4.5 mph W7.2 kmh W 8.3 mph13.4 kmh 30.25 in1024.4 mb 0.00 in0.0 mm 0.00 in/hr0.0 mm/hr 0.01 in0.3 mm
10:20 AM 39.9°F4.4°C 39.7°F4.3°C 99% 4.5 mph W7.2 kmh W 8.3 mph13.4 kmh 30.25 in1024.4 mb 0.00 in0.0 mm 0.00 in/hr0.0 mm/hr 0.01 in0.3 mm
10:15 AM 40.1°F4.5°C 39.8°F4.3°C 99% 3.1 mph W5.0 kmh W 9.8 mph15.8 kmh 30.25 in1024.4 mb 0.00 in0.0 mm 0.00 in/hr0.0 mm/hr 0.01 in0.3 mm
10:10 AM 40.1°F4.5°C 39.8°F4.3°C 99% 4.5 mph W7.2 kmh W 9.8 mph15.8 kmh 30.25 in1024.4 mb 0.00 in0.0 mm 0.00 in/hr0.0 mm/hr 0.01 in0.3 mm
10:05 AM 40.3°F4.6°C 40.0°F4.4°C 99% 4.5 mph W7.2 kmh W 9.8 mph15.8 kmh 30.26 in1024.7 mb 0.00 in0.0 mm 0.00 in/hr0.0 mm/hr 0.01 in0.3 mm
10:00 AM 40.3°F4.6°C 40.0°F4.4°C 99% 5.4 mph W8.7 kmh W 8.3 mph13.4 kmh 30.25 in1024.4 mb 0.00 in0.0 mm 0.00 in/hr0.0 mm/hr 0.01 in0.3 mm
09:55 AM 40.5°F4.7°C 40.2°F4.6°C 99% 4.5 mph W7.2 kmh W 8.3 mph13.4 kmh 30.25 in1024.4 mb 0.00 in0.0 mm 0.00 in/hr0.0 mm/hr 0.01 in0.3 mm
09:50 AM 40.1°F4.5°C 39.8°F4.3°C 99% 5.4 mph W8.7 kmh W 8.3 mph13.4 kmh 30.25 in1024.4 mb 0.00 in0.0 mm 0.00 in/hr0.0 mm/hr 0.01 in0.3 mm
09:45 AM 39.9°F4.4°C 39.7°F4.3°C 99% 4.5 mph W7.2 kmh W 7.6 mph12.2 kmh 30.26 in1024.7 mb 0.00 in0.0 mm 0.00 in/hr0.0 mm/hr 0.01 in0.3 mm
09:40 AM 39.7°F4.3°C 39.5°F4.2°C 99% 2.2 mph W3.5 kmh W 7.6 mph12.2 kmh 30.25 in1024.4 mb 0.00 in0.0 mm 0.00 in/hr0.0 mm/hr 0.01 in0.3 mm
09:35 AM 39.9°F4.4°C 39.7°F4.3°C 99% 3.8 mph W6.1 kmh W 7.6 mph12.2 kmh 30.25 in1024.4 mb 0.00 in0.0 mm 0.00 in/hr0.0 mm/hr 0.01 in0.3 mm
09:30 AM 39.6°F4.2°C 39.3°F4.1°C 99% 3.1 mph W5.0 kmh W 7.6 mph12.2 kmh 30.24 in1024.0 mb 0.00 in0.0 mm 0.00 in/hr0.0 mm/hr 0.01 in0.3 mm
09:25 AM 39.4°F4.1°C 39.1°F3.9°C 99% 5.4 mph W8.7 kmh W 9.2 mph14.8 kmh 30.25 in1024.4 mb 0.00 in0.0 mm 0.00 in/hr0.0 mm/hr 0.01 in0.3 mm
09:20 AM 39.2°F4.0°C 38.9°F3.8°C 99% 3.1 mph W5.0 kmh W 9.2 mph14.8 kmh 30.25 in1024.4 mb 0.00 in0.0 mm 0.00 in/hr0.0 mm/hr 0.01 in0.3 mm
09:15 AM 39.0°F3.9°C 38.8°F3.8°C 99% 4.5 mph W7.2 kmh W 8.3 mph13.4 kmh 30.24 in1024.0 mb 0.00 in0.0 mm 0.00 in/hr0.0 mm/hr 0.01 in0.3 mm
09:10 AM 39.2°F4.0°C 38.9°F3.8°C 99% 3.8 mph W6.1 kmh W 8.3 mph13.4 kmh 30.24 in1024.0 mb 0.00 in0.0 mm 0.00 in/hr0.0 mm/hr 0.01 in0.3 mm
09:05 AM 39.0°F3.9°C 38.8°F3.8°C 99% 4.5 mph W7.2 kmh W 10.7 mph17.2 kmh 30.23 in1023.7 mb 0.00 in0.0 mm 0.00 in/hr0.0 mm/hr 0.01 in0.3 mm
09:00 AM 39.0°F3.9°C 38.8°F3.8°C 99% 3.8 mph W6.1 kmh W 10.7 mph17.2 kmh 30.24 in1024.0 mb 0.00 in0.0 mm 0.00 in/hr0.0 mm/hr 0.01 in0.3 mm
08:55 AM 39.2°F4.0°C 38.9°F3.8°C 99% 3.8 mph W6.1 kmh W 7.6 mph12.2 kmh 30.24 in1024.0 mb 0.00 in0.0 mm 0.00 in/hr0.0 mm/hr 0.01 in0.3 mm
08:50 AM 38.8°F3.8°C 38.6°F3.7°C 99% 3.1 mph W5.0 kmh W 7.6 mph12.2 kmh 30.24 in1024.0 mb 0.00 in0.0 mm 0.00 in/hr0.0 mm/hr 0.01 in0.3 mm
08:45 AM 38.7°F3.7°C 38.4°F3.6°C 99% 4.5 mph W7.2 kmh W 7.6 mph12.2 kmh 30.24 in1024.0 mb 0.00 in0.0 mm 0.00 in/hr0.0 mm/hr 0.01 in0.3 mm
08:40 AM 38.5°F3.6°C 38.2°F3.4°C 99% 3.1 mph W5.0 kmh W 7.6 mph12.2 kmh 30.24 in1024.0 mb 0.00 in0.0 mm 0.00 in/hr0.0 mm/hr 0.01 in0.3 mm
08:35 AM 38.5°F3.6°C 38.2°F3.4°C 99% 3.1 mph W5.0 kmh W 8.3 mph13.4 kmh 30.24 in1024.0 mb 0.00 in0.0 mm 0.00 in/hr0.0 mm/hr 0.01 in0.3 mm
08:30 AM 38.5°F3.6°C 38.2°F3.4°C 99% 3.8 mph W6.1 kmh W 8.3 mph13.4 kmh 30.25 in1024.4 mb 0.00 in0.0 mm 0.00 in/hr0.0 mm/hr 0.01 in0.3 mm
08:25 AM 38.3°F3.5°C 38.0°F3.3°C 99% 3.8 mph W6.1 kmh W 6.9 mph11.1 kmh 30.24 in1024.0 mb 0.00 in0.0 mm 0.00 in/hr0.0 mm/hr 0.01 in0.3 mm
08:20 AM 38.3°F3.5°C 38.0°F3.3°C 99% 3.1 mph W5.0 kmh W 6.0 mph9.7 kmh 30.23 in1023.7 mb 0.00 in0.0 mm 0.00 in/hr0.0 mm/hr 0.01 in0.3 mm
08:15 AM 38.5°F3.6°C 38.2°F3.4°C 99% 2.2 mph W3.5 kmh W 5.4 mph8.7 kmh 30.23 in1023.7 mb 0.00 in0.0 mm 0.00 in/hr0.0 mm/hr 0.01 in0.3 mm
08:10 AM 38.5°F3.6°C 38.2°F3.4°C 99% 2.2 mph W3.5 kmh W 5.4 mph8.7 kmh 30.23 in1023.7 mb 0.00 in0.0 mm 0.00 in/hr0.0 mm/hr 0.01 in0.3 mm
08:05 AM 38.5°F3.6°C 38.2°F3.4°C 99% 3.1 mph W5.0 kmh W 5.4 mph8.7 kmh 30.22 in1023.4 mb 0.00 in0.0 mm 0.00 in/hr0.0 mm/hr 0.01 in0.3 mm
08:00 AM 38.5°F3.6°C 38.2°F3.4°C 99% 2.2 mph W3.5 kmh W 5.4 mph8.7 kmh 30.23 in1023.7 mb 0.00 in0.0 mm 0.00 in/hr0.0 mm/hr 0.01 in0.3 mm
07:55 AM 38.3°F3.5°C 38.0°F3.3°C 99% 3.1 mph W5.0 kmh W 5.4 mph8.7 kmh 30.23 in1023.7 mb 0.00 in0.0 mm 0.00 in/hr0.0 mm/hr 0.01 in0.3 mm
07:50 AM 38.3°F3.5°C 38.0°F3.3°C 99% 2.2 mph W3.5 kmh W 4.5 mph7.2 kmh 30.23 in1023.7 mb 0.00 in0.0 mm 0.00 in/hr0.0 mm/hr 0.01 in0.3 mm
07:45 AM 38.3°F3.5°C 38.0°F3.3°C 99% 2.2 mph W3.5 kmh W 4.5 mph7.2 kmh 30.22 in1023.4 mb 0.00 in0.0 mm 0.00 in/hr0.0 mm/hr 0.01 in0.3 mm
07:40 AM 38.1°F3.4°C 37.9°F3.3°C 99% 1.6 mph W2.6 kmh W 5.4 mph8.7 kmh 30.22 in1023.4 mb 0.00 in0.0 mm 0.00 in/hr0.0 mm/hr 0.01 in0.3 mm
07:35 AM 38.1°F3.4°C 37.9°F3.3°C 99% 2.2 mph W3.5 kmh W 6.0 mph9.7 kmh 30.22 in1023.4 mb 0.00 in0.0 mm 0.00 in/hr0.0 mm/hr 0.01 in0.3 mm
07:30 AM 38.1°F3.4°C 37.9°F3.3°C 99% 2.2 mph W3.5 kmh W 6.0 mph9.7 kmh 30.22 in1023.4 mb 0.00 in0.0 mm 0.00 in/hr0.0 mm/hr 0.01 in0.3 mm
07:25 AM 37.9°F3.3°C 37.7°F3.2°C 99% 2.2 mph W3.5 kmh W 4.5 mph7.2 kmh 30.22 in1023.4 mb 0.00 in0.0 mm 0.00 in/hr0.0 mm/hr 0.01 in0.3 mm
07:20 AM 37.8°F3.2°C 37.5°F3.1°C 99% 2.2 mph W3.5 kmh W 5.4 mph8.7 kmh 30.22 in1023.4 mb 0.00 in0.0 mm 0.00 in/hr0.0 mm/hr 0.01 in0.3 mm
07:15 AM 37.6°F3.1°C 37.3°F2.9°C 99% 2.2 mph W3.5 kmh W 6.0 mph9.7 kmh 30.22 in1023.4 mb 0.00 in0.0 mm 0.00 in/hr0.0 mm/hr 0.01 in0.3 mm
07:10 AM 37.6°F3.1°C 37.3°F2.9°C 99% 3.1 mph W5.0 kmh W 6.0 mph9.7 kmh 30.22 in1023.4 mb 0.00 in0.0 mm 0.00 in/hr0.0 mm/hr 0.01 in0.3 mm
07:05 AM 37.6°F3.1°C 37.3°F2.9°C 99% 2.2 mph W3.5 kmh W 6.0 mph9.7 kmh 30.22 in1023.4 mb 0.00 in0.0 mm 0.00 in/hr0.0 mm/hr 0.01 in0.3 mm
07:00 AM 37.6°F3.1°C 37.3°F2.9°C 99% 3.8 mph W6.1 kmh W 7.6 mph12.2 kmh 30.22 in1023.4 mb 0.00 in0.0 mm 0.00 in/hr0.0 mm/hr 0.01 in0.3 mm
06:55 AM 37.8°F3.2°C 37.5°F3.1°C 99% 3.1 mph W5.0 kmh W 7.6 mph12.2 kmh 30.22 in1023.4 mb 0.00 in0.0 mm 0.00 in/hr0.0 mm/hr 0.01 in0.3 mm
06:50 AM 37.6°F3.1°C 37.3°F2.9°C 99% 3.8 mph W6.1 kmh W 7.6 mph12.2 kmh 30.22 in1023.4 mb 0.00 in0.0 mm 0.00 in/hr0.0 mm/hr 0.01 in0.3 mm
06:45 AM 37.6°F3.1°C 37.3°F2.9°C 99% 3.1 mph W5.0 kmh W 6.0 mph9.7 kmh 30.22 in1023.4 mb 0.00 in0.0 mm 0.00 in/hr0.0 mm/hr 0.01 in0.3 mm
06:40 AM 37.6°F3.1°C 37.3°F2.9°C 99% 3.1 mph W5.0 kmh W 6.0 mph9.7 kmh 30.22 in1023.4 mb 0.00 in0.0 mm 0.00 in/hr0.0 mm/hr 0.01 in0.3 mm
06:35 AM 37.6°F3.1°C 37.3°F2.9°C 99% 2.2 mph W3.5 kmh W 6.9 mph11.1 kmh 30.22 in1023.4 mb 0.00 in0.0 mm 0.00 in/hr0.0 mm/hr 0.01 in0.3 mm
06:30 AM 37.6°F3.1°C 37.3°F2.9°C 99% 3.1 mph W5.0 kmh W 7.6 mph12.2 kmh 30.21 in1023.0 mb 0.00 in0.0 mm 0.00 in/hr0.0 mm/hr 0.01 in0.3 mm
06:25 AM 37.6°F3.1°C 37.3°F2.9°C 99% 2.2 mph W3.5 kmh W 7.6 mph12.2 kmh 30.21 in1023.0 mb 0.00 in0.0 mm 0.00 in/hr0.0 mm/hr 0.01 in0.3 mm
06:20 AM 37.6°F3.1°C 37.3°F2.9°C 99% 3.1 mph W5.0 kmh W 6.9 mph11.1 kmh 30.21 in1023.0 mb 0.00 in0.0 mm 0.00 in/hr0.0 mm/hr 0.01 in0.3 mm
06:15 AM 37.4°F3.0°C 37.1°F2.8°C 99% 3.8 mph W6.1 kmh W 6.9 mph11.1 kmh 30.20 in1022.7 mb 0.00 in0.0 mm 0.00 in/hr0.0 mm/hr 0.01 in0.3 mm
06:10 AM 37.4°F3.0°C 37.1°F2.8°C 99% 3.1 mph W5.0 kmh W 5.4 mph8.7 kmh 30.20 in1022.7 mb 0.00 in0.0 mm 0.00 in/hr0.0 mm/hr 0.01 in0.3 mm
06:05 AM 37.4°F3.0°C 37.1°F2.8°C 99% 2.2 mph WNW3.5 kmh WNW 4.5 mph7.2 kmh 30.20 in1022.7 mb 0.00 in0.0 mm 0.00 in/hr0.0 mm/hr 0.01 in0.3 mm
06:00 AM 37.4°F3.0°C 37.1°F2.8°C 99% 1.6 mph W2.6 kmh W 4.5 mph7.2 kmh 30.20 in1022.7 mb 0.00 in0.0 mm 0.00 in/hr0.0 mm/hr 0.01 in0.3 mm
05:55 AM 37.4°F3.0°C 37.1°F2.8°C 99% 0.7 mph W1.1 kmh W 4.5 mph7.2 kmh 30.19 in1022.4 mb 0.00 in0.0 mm 0.00 in/hr0.0 mm/hr 0.01 in0.3 mm
05:50 AM 37.6°F3.1°C 37.3°F2.9°C 99% 1.6 mph W2.6 kmh W 4.5 mph7.2 kmh 30.19 in1022.4 mb 0.00 in0.0 mm 0.00 in/hr0.0 mm/hr 0.01 in0.3 mm
05:45 AM 37.8°F3.2°C 37.5°F3.1°C 99% 3.1 mph W5.0 kmh W 4.5 mph7.2 kmh 30.19 in1022.4 mb 0.00 in0.0 mm 0.00 in/hr0.0 mm/hr 0.01 in0.3 mm
05:40 AM 37.8°F3.2°C 37.5°F3.1°C 99% 1.6 mph W2.6 kmh W 4.5 mph7.2 kmh 30.18 in1022.0 mb 0.00 in0.0 mm 0.00 in/hr0.0 mm/hr 0.01 in0.3 mm
05:35 AM 37.9°F3.3°C 37.7°F3.2°C 99% 1.6 mph W2.6 kmh W 3.8 mph6.1 kmh 30.18 in1022.0 mb 0.00 in0.0 mm 0.00 in/hr0.0 mm/hr 0.01 in0.3 mm
05:30 AM 38.1°F3.4°C 37.9°F3.3°C 99% 2.2 mph W3.5 kmh W 4.5 mph7.2 kmh 30.18 in1022.0 mb 0.00 in0.0 mm 0.00 in/hr0.0 mm/hr 0.01 in0.3 mm
05:25 AM 38.3°F3.5°C 38.0°F3.3°C 99% 0.7 mph W1.1 kmh W 4.5 mph7.2 kmh 30.19 in1022.4 mb 0.00 in0.0 mm 0.00 in/hr0.0 mm/hr 0.01 in0.3 mm
05:20 AM 38.5°F3.6°C 38.2°F3.4°C 99% 2.2 mph W3.5 kmh W 4.5 mph7.2 kmh 30.19 in1022.4 mb 0.00 in0.0 mm 0.00 in/hr0.0 mm/hr 0.01 in0.3 mm
05:15 AM 38.5°F3.6°C 38.2°F3.4°C 99% 2.2 mph W3.5 kmh W 5.4 mph8.7 kmh 30.19 in1022.4 mb 0.00 in0.0 mm 0.00 in/hr0.0 mm/hr 0.01 in0.3 mm
05:10 AM 38.5°F3.6°C 38.2°F3.4°C 99% 3.1 mph W5.0 kmh W 5.4 mph8.7 kmh 30.19 in1022.4 mb 0.00 in0.0 mm 0.00 in/hr0.0 mm/hr 0.01 in0.3 mm
05:05 AM 38.7°F3.7°C 38.4°F3.6°C 99% 2.2 mph W3.5 kmh W 5.4 mph8.7 kmh 30.19 in1022.4 mb 0.00 in0.0 mm 0.00 in/hr0.0 mm/hr 0.01 in0.3 mm
05:00 AM 38.5°F3.6°C 38.2°F3.4°C 99% 1.6 mph W2.6 kmh W 3.8 mph6.1 kmh 30.19 in1022.4 mb 0.00 in0.0 mm 0.00 in/hr0.0 mm/hr 0.01 in0.3 mm
04:55 AM 38.5°F3.6°C 38.2°F3.4°C 99% 0.7 mph W1.1 kmh W 3.8 mph6.1 kmh 30.19 in1022.4 mb 0.00 in0.0 mm 0.00 in/hr0.0 mm/hr 0.01 in0.3 mm
04:50 AM 38.5°F3.6°C 38.2°F3.4°C 99% 0.7 mph W1.1 kmh W 3.8 mph6.1 kmh 30.18 in1022.0 mb 0.00 in0.0 mm 0.00 in/hr0.0 mm/hr 0.01 in0.3 mm
04:45 AM 38.1°F3.4°C 37.9°F3.3°C 99% 0.7 mph W1.1 kmh W 2.2 mph3.5 kmh 30.18 in1022.0 mb 0.00 in0.0 mm 0.00 in/hr0.0 mm/hr 0.01 in0.3 mm
04:40 AM 37.9°F3.3°C 37.7°F3.2°C 99% 0.7 mph W1.1 kmh W 2.2 mph3.5 kmh 30.19 in1022.4 mb 0.00 in0.0 mm 0.00 in/hr0.0 mm/hr 0.01 in0.3 mm
04:35 AM 37.8°F3.2°C 37.5°F3.1°C 99% Calm Calm 1.6 mph2.6 kmh 30.18 in1022.0 mb 0.01 in0.3 mm 0.00 in/hr0.0 mm/hr 0.01 in0.3 mm
04:30 AM 37.8°F3.2°C 37.5°F3.1°C 99% Calm Calm 2.2 mph3.5 kmh 30.18 in1022.0 mb 0.01 in0.3 mm 0.00 in/hr0.0 mm/hr 0.01 in0.3 mm
04:25 AM 37.8°F3.2°C 37.5°F3.1°C 99% Calm Calm 2.2 mph3.5 kmh 30.18 in1022.0 mb 0.01 in0.3 mm 0.00 in/hr0.0 mm/hr 0.01 in0.3 mm
04:20 AM 37.8°F3.2°C 37.5°F3.1°C 99% Calm Calm 1.6 mph2.6 kmh 30.18 in1022.0 mb 0.01 in0.3 mm 0.00 in/hr0.0 mm/hr 0.01 in0.3 mm
04:15 AM 37.6°F3.1°C 37.3°F2.9°C 99% 0.7 mph WNW1.1 kmh WNW 2.2 mph3.5 kmh 30.18 in1022.0 mb 0.01 in0.3 mm 0.00 in/hr0.0 mm/hr 0.01 in0.3 mm
04:10 AM 37.4°F3.0°C 37.1°F2.8°C 99% Calm Calm 2.2 mph3.5 kmh 30.18 in1022.0 mb 0.01 in0.3 mm 0.00 in/hr0.0 mm/hr 0.01 in0.3 mm
04:05 AM 37.2°F2.9°C 37.0°F2.8°C 99% 0.7 mph W1.1 kmh W 1.6 mph2.6 kmh 30.17 in1021.7 mb 0.01 in0.3 mm 0.00 in/hr0.0 mm/hr 0.01 in0.3 mm
04:00 AM 37.2°F2.9°C 37.0°F2.8°C 99% Calm Calm 2.2 mph3.5 kmh 30.17 in1021.7 mb 0.01 in0.3 mm 0.00 in/hr0.0 mm/hr 0.01 in0.3 mm
03:55 AM 37.2°F2.9°C 37.0°F2.8°C 99% Calm Calm 2.2 mph3.5 kmh 30.17 in1021.7 mb 0.01 in0.3 mm 0.00 in/hr0.0 mm/hr 0.01 in0.3 mm
03:50 AM 37.2°F2.9°C 37.0°F2.8°C 99% 0.7 mph W1.1 kmh W 2.2 mph3.5 kmh 30.17 in1021.7 mb 0.01 in0.3 mm 0.00 in/hr0.0 mm/hr 0.01 in0.3 mm
03:45 AM 37.4°F3.0°C 37.1°F2.8°C 99% Calm Calm 2.2 mph3.5 kmh 30.17 in1021.7 mb 0.01 in0.3 mm 0.00 in/hr0.0 mm/hr 0.01 in0.3 mm
03:40 AM 37.8°F3.2°C 37.5°F3.1°C 99% Calm Calm 3.1 mph5.0 kmh 30.17 in1021.7 mb 0.01 in0.3 mm 0.12 in/hr3.0 mm/hr 0.01 in0.3 mm
03:35 AM 37.9°F3.3°C 37.7°F3.2°C 99% Calm Calm 3.1 mph5.0 kmh 30.17 in1021.7 mb 0.00 in0.0 mm 0.00 in/hr0.0 mm/hr 0.00 in0.0 mm
03:30 AM 38.1°F3.4°C 37.9°F3.3°C 99% Calm Calm 2.2 mph3.5 kmh 30.17 in1021.7 mb 0.00 in0.0 mm 0.00 in/hr0.0 mm/hr 0.00 in0.0 mm
03:25 AM 38.1°F3.4°C 37.9°F3.3°C 99% 0.7 mph NW1.1 kmh NW 2.2 mph3.5 kmh 30.17 in1021.7 mb 0.00 in0.0 mm 0.00 in/hr0.0 mm/hr 0.00 in0.0 mm
03:20 AM 37.9°F3.3°C 37.7°F3.2°C 99% Calm Calm 2.2 mph3.5 kmh 30.17 in1021.7 mb 0.00 in0.0 mm 0.00 in/hr0.0 mm/hr 0.00 in0.0 mm
03:15 AM 38.1°F3.4°C 37.9°F3.3°C 99% Calm Calm 2.2 mph3.5 kmh 30.17 in1021.7 mb 0.00 in0.0 mm 0.00 in/hr0.0 mm/hr 0.00 in0.0 mm
03:10 AM 38.1°F3.4°C 37.9°F3.3°C 99% 0.7 mph WSW1.1 kmh WSW 3.1 mph5.0 kmh 30.17 in1021.7 mb 0.00 in0.0 mm 0.00 in/hr0.0 mm/hr 0.00 in0.0 mm
03:05 AM 38.3°F3.5°C 38.0°F3.3°C 99% 0.7 mph WSW1.1 kmh WSW 3.1 mph5.0 kmh 30.16 in1021.3 mb 0.00 in0.0 mm 0.00 in/hr0.0 mm/hr 0.00 in0.0 mm
03:00 AM 38.3°F3.5°C 38.0°F3.3°C 99% 0.7 mph W1.1 kmh W 2.2 mph3.5 kmh 30.16 in1021.3 mb 0.00 in0.0 mm 0.00 in/hr0.0 mm/hr 0.00 in0.0 mm
02:55 AM 38.5°F3.6°C 38.2°F3.4°C 99% 0.7 mph W1.1 kmh W 2.2 mph3.5 kmh 30.16 in1021.3 mb 0.00 in0.0 mm 0.00 in/hr0.0 mm/hr 0.00 in0.0 mm
02:50 AM 38.8°F3.8°C 38.6°F3.7°C 99% 0.7 mph W1.1 kmh W 3.1 mph5.0 kmh 30.16 in1021.3 mb 0.00 in0.0 mm 0.00 in/hr0.0 mm/hr 0.00 in0.0 mm
02:45 AM 39.2°F4.0°C 38.9°F3.8°C 99% 0.7 mph W1.1 kmh W 4.5 mph7.2 kmh 30.16 in1021.3 mb 0.00 in0.0 mm 0.00 in/hr0.0 mm/hr 0.00 in0.0 mm
02:40 AM 39.2°F4.0°C 38.9°F3.8°C 99% 0.7 mph W1.1 kmh W 4.5 mph7.2 kmh 30.16 in1021.3 mb 0.00 in0.0 mm 0.00 in/hr0.0 mm/hr 0.00 in0.0 mm
02:35 AM 39.2°F4.0°C 38.9°F3.8°C 99% 1.6 mph WNW2.6 kmh WNW 4.5 mph7.2 kmh 30.16 in1021.3 mb 0.00 in0.0 mm 0.00 in/hr0.0 mm/hr 0.00 in0.0 mm
02:30 AM 39.2°F4.0°C 38.9°F3.8°C 99% 0.7 mph NW1.1 kmh NW 4.5 mph7.2 kmh 30.16 in1021.3 mb 0.00 in0.0 mm 0.00 in/hr0.0 mm/hr 0.00 in0.0 mm
02:25 AM 39.4°F4.1°C 39.1°F3.9°C 99% 0.7 mph NW1.1 kmh NW 3.1 mph5.0 kmh 30.16 in1021.3 mb 0.00 in0.0 mm 0.00 in/hr0.0 mm/hr 0.00 in0.0 mm
02:20 AM 39.7°F4.3°C 39.5°F4.2°C 99% Calm Calm 3.1 mph5.0 kmh 30.16 in1021.3 mb 0.00 in0.0 mm 0.00 in/hr0.0 mm/hr 0.00 in0.0 mm
02:15 AM 39.7°F4.3°C 39.5°F4.2°C 99% Calm Calm 3.8 mph6.1 kmh 30.15 in1021.0 mb 0.00 in0.0 mm 0.00 in/hr0.0 mm/hr 0.00 in0.0 mm
02:10 AM 39.9°F4.4°C 39.7°F4.3°C 99% 0.7 mph W1.1 kmh W 3.8 mph6.1 kmh 30.15 in1021.0 mb 0.00 in0.0 mm 0.00 in/hr0.0 mm/hr 0.00 in0.0 mm
02:05 AM 40.1°F4.5°C 39.8°F4.3°C 99% 0.7 mph WSW1.1 kmh WSW 5.4 mph8.7 kmh 30.15 in1021.0 mb 0.00 in0.0 mm 0.00 in/hr0.0 mm/hr 0.00 in0.0 mm
02:00 AM 40.3°F4.6°C 40.0°F4.4°C 99% 2.2 mph W3.5 kmh W 5.4 mph8.7 kmh 30.15 in1021.0 mb 0.00 in0.0 mm 0.00 in/hr0.0 mm/hr 0.00 in0.0 mm
01:55 AM 40.1°F4.5°C 39.8°F4.3°C 99% 2.2 mph NNW3.5 kmh NNW 5.4 mph8.7 kmh 30.15 in1021.0 mb 0.00 in0.0 mm 0.00 in/hr0.0 mm/hr 0.00 in0.0 mm
01:50 AM 40.3°F4.6°C 40.0°F4.4°C 99% 2.2 mph NW3.5 kmh NW 5.4 mph8.7 kmh 30.15 in1021.0 mb 0.00 in0.0 mm 0.00 in/hr0.0 mm/hr 0.00 in0.0 mm
01:45 AM 40.6°F4.8°C 40.4°F4.7°C 99% 1.6 mph W2.6 kmh W 4.5 mph7.2 kmh 30.15 in1021.0 mb 0.00 in0.0 mm 0.00 in/hr0.0 mm/hr 0.00 in0.0 mm
01:40 AM 40.8°F4.9°C 40.6°F4.8°C 99% 1.6 mph W2.6 kmh W 4.5 mph7.2 kmh 30.15 in1021.0 mb 0.00 in0.0 mm 0.00 in/hr0.0 mm/hr 0.00 in0.0 mm
01:35 AM 40.8°F4.9°C 40.6°F4.8°C 99% 2.2 mph W3.5 kmh W 4.5 mph7.2 kmh 30.15 in1021.0 mb 0.00 in0.0 mm 0.00 in/hr0.0 mm/hr 0.00 in0.0 mm
01:30 AM 40.8°F4.9°C 40.6°F4.8°C 99% 0.7 mph W1.1 kmh W 3.8 mph6.1 kmh 30.14 in1020.7 mb 0.00 in0.0 mm 0.00 in/hr0.0 mm/hr 0.00 in0.0 mm
01:25 AM 41.0°F5.0°C 40.7°F4.8°C 99% 0.7 mph W1.1 kmh W 4.5 mph7.2 kmh 30.14 in1020.7 mb 0.00 in0.0 mm 0.00 in/hr0.0 mm/hr 0.00 in0.0 mm
01:20 AM 41.0°F5.0°C 40.7°F4.8°C 99% 1.6 mph W2.6 kmh W 4.5 mph7.2 kmh 30.14 in1020.7 mb 0.00 in0.0 mm 0.00 in/hr0.0 mm/hr 0.00 in0.0 mm
01:15 AM 41.0°F5.0°C 40.7°F4.8°C 99% 2.2 mph W3.5 kmh W 3.8 mph6.1 kmh 30.14 in1020.7 mb 0.00 in0.0 mm 0.00 in/hr0.0 mm/hr 0.00 in0.0 mm
01:10 AM 41.0°F5.0°C 40.7°F4.8°C 99% 0.7 mph WNW1.1 kmh WNW 3.1 mph5.0 kmh 30.14 in1020.7 mb 0.00 in0.0 mm 0.00 in/hr0.0 mm/hr 0.00 in0.0 mm
01:05 AM 41.2°F5.1°C 40.9°F4.9°C 99% 0.7 mph WNW1.1 kmh WNW 3.1 mph5.0 kmh 30.14 in1020.7 mb 0.00 in0.0 mm 0.00 in/hr0.0 mm/hr 0.00 in0.0 mm
01:00 AM 41.4°F5.2°C 41.1°F5.1°C 99% Calm Calm 3.1 mph5.0 kmh 30.14 in1020.7 mb 0.00 in0.0 mm 0.00 in/hr0.0 mm/hr 0.00 in0.0 mm
12:55 AM 41.5°F5.3°C 41.3°F5.2°C 99% 0.7 mph W1.1 kmh W 5.4 mph8.7 kmh 30.14 in1020.7 mb 0.00 in0.0 mm 0.00 in/hr0.0 mm/hr 0.00 in0.0 mm
12:50 AM 41.5°F5.3°C 41.3°F5.2°C 99% 1.6 mph W2.6 kmh W 5.4 mph8.7 kmh 30.13 in1020.3 mb 0.00 in0.0 mm 0.00 in/hr0.0 mm/hr 0.00 in0.0 mm
12:45 AM 41.7°F5.4°C 41.5°F5.3°C 99% 2.2 mph W3.5 kmh W 4.5 mph7.2 kmh 30.14 in1020.7 mb 0.00 in0.0 mm 0.00 in/hr0.0 mm/hr 0.00 in0.0 mm
12:40 AM 41.7°F5.4°C 41.5°F5.3°C 99% 2.2 mph W3.5 kmh W 3.8 mph6.1 kmh 30.14 in1020.7 mb 0.00 in0.0 mm 0.00 in/hr0.0 mm/hr 0.00 in0.0 mm
12:35 AM 41.7°F5.4°C 41.5°F5.3°C 99% 1.6 mph W2.6 kmh W 4.5 mph7.2 kmh 30.14 in1020.7 mb 0.00 in0.0 mm 0.00 in/hr0.0 mm/hr 0.00 in0.0 mm
12:30 AM 41.7°F5.4°C 41.5°F5.3°C 99% 2.2 mph W3.5 kmh W 4.5 mph7.2 kmh 30.14 in1020.7 mb 0.00 in0.0 mm 0.00 in/hr0.0 mm/hr 0.00 in0.0 mm
12:25 AM 41.7°F5.4°C 41.5°F5.3°C 99% 1.6 mph W2.6 kmh W 4.5 mph7.2 kmh 30.14 in1020.7 mb 0.00 in0.0 mm 0.00 in/hr0.0 mm/hr 0.00 in0.0 mm
12:20 AM 41.7°F5.4°C 41.5°F5.3°C 99% 2.2 mph W3.5 kmh W 6.0 mph9.7 kmh 30.14 in1020.7 mb 0.00 in0.0 mm 0.00 in/hr0.0 mm/hr 0.00 in0.0 mm
12:15 AM 41.7°F5.4°C 41.5°F5.3°C 99% 1.6 mph W2.6 kmh W 6.0 mph9.7 kmh 30.14 in1020.7 mb 0.00 in0.0 mm 0.00 in/hr0.0 mm/hr 0.00 in0.0 mm
12:10 AM 41.5°F5.3°C 41.3°F5.2°C 99% 3.1 mph W5.0 kmh W 6.0 mph9.7 kmh 30.14 in1020.7 mb 0.00 in0.0 mm 0.00 in/hr0.0 mm/hr 0.00 in0.0 mm
12:05 AM 41.5°F5.3°C 41.3°F5.2°C 99% 2.2 mph W3.5 kmh W 3.8 mph6.1 kmh 30.14 in1020.7 mb 0.00 in0.0 mm 0.00 in/hr0.0 mm/hr 0.00 in0.0 mm
12:00 AM 41.5°F5.3°C 41.3°F5.2°C 99% 1.6 mph W2.6 kmh W 3.1 mph5.0 kmh 30.14 in1020.7 mb 0.00 in0.0 mm 0.00 in/hr0.0 mm/hr 0.00 in0.0 mm